Time;durP1;ratioP1;P1;durP2;ratioP2;P2;SDS_P1;SDS_P2;PMS_P1;PMS_P2;Temp;Humidity;BMP_temperature;BMP_pressure;BME280_temperature;BME280_humidity;BME280_pressure;Samples;Min_cycle;Max_cycle;Signal;HPM_P1;HPM_P2
2022/01/31 00:02:04;;;;;;;27.17;11.50;;;;;;;;;;4863667;29;20049;-80
2022/01/31 00:04:50;;;;;;;31.50;12.63;;;;;;;;;;4870789;29;20057;-81
2022/01/31 00:07:35;;;;;;;30.83;13.60;;;;;;;;;;4868956;29;20404;-80
2022/01/31 00:10:28;;;;;;;25.45;11.85;;;;;;;;;;4869174;29;20049;-80
2022/01/31 00:13:20;;;;;;;22.08;10.23;;;;;;;;;;4869179;29;20050;-81
2022/01/31 00:16:07;;;;;;;24.77;11.48;;;;;;;;;;4863106;29;20041;-81
2022/01/31 00:18:52;;;;;;;22.02;10.60;;;;;;;;;;4849273;29;20042;-79
2022/01/31 00:21:37;;;;;;;30.60;12.40;;;;;;;;;;4864113;29;20046;-79
2022/01/31 00:24:23;;;;;;;19.95;9.40;;;;;;;;;;4870548;29;20057;-78
2022/01/31 00:27:09;;;;;;;18.23;9.20;;;;;;;;;;4870313;29;20049;-79
2022/01/31 00:29:54;;;;;;;13.82;6.65;;;;;;;;;;4856260;29;20050;-80
2022/01/31 00:32:38;;;;;;;13.18;5.63;;;;;;;;;;4850587;29;20058;-80
2022/01/31 00:35:26;;;;;;;11.95;5.15;;;;;;;;;;4870606;29;20046;-79
2022/01/31 00:38:11;;;;;;;7.75;2.92;;;;;;;;;;4856054;29;20049;-79
2022/01/31 00:40:56;;;;;;;6.60;2.70;;;;;;;;;;4864086;29;20053;-81
2022/01/31 00:43:44;;;;;;;9.23;2.60;;;;;;;;;;4870001;29;20061;-80
2022/01/31 00:46:41;;;;;;;9.45;3.00;;;;;;;;;;4858574;29;20046;-80
2022/01/31 00:52:19;;;;;;;9.18;3.17;;;;;;;;;;4865232;29;20401;-78
2022/01/31 00:55:06;;;;;;;11.02;3.85;;;;;;;;;;4863879;29;20054;-78
2022/01/31 00:57:52;;;;;;;12.20;4.25;;;;;;;;;;4863810;29;20049;-79
2022/01/31 01:00:37;;;;;;;10.73;3.78;;;;;;;;;;4864242;29;20054;-79
2022/01/31 01:03:23;;;;;;;11.75;4.22;;;;;;;;;;4864125;29;20049;-80
2022/01/31 01:06:08;;;;;;;7.57;2.63;;;;;;;;;;4855644;29;20045;-78
2022/01/31 01:08:54;;;;;;;16.25;2.63;;;;;;;;;;4863453;29;20049;-80
2022/01/31 01:11:40;;;;;;;7.75;2.35;;;;;;;;;;4869225;29;20057;-79
2022/01/31 01:14:26;;;;;;;12.10;3.33;;;;;;;;;;4869465;29;20049;-79
2022/01/31 01:17:11;;;;;;;9.15;3.03;;;;;;;;;;4863370;29;20049;-80
2022/01/31 01:19:57;;;;;;;16.67;4.28;;;;;;;;;;4869037;29;20443;-79
2022/01/31 01:22:44;;;;;;;11.63;3.72;;;;;;;;;;4856007;29;20053;-79
2022/01/31 01:25:32;;;;;;;11.40;3.33;;;;;;;;;;4855488;29;20057;-78
2022/01/31 01:28:20;;;;;;;13.65;3.72;;;;;;;;;;4863291;29;20049;-80
2022/01/31 01:31:05;;;;;;;12.25;3.63;;;;;;;;;;4855233;29;20049;-79
2022/01/31 01:33:53;;;;;;;6.30;2.28;;;;;;;;;;4855056;29;20045;-80
2022/01/31 01:36:40;;;;;;;9.82;3.40;;;;;;;;;;4855710;29;20054;-82
2022/01/31 01:39:26;;;;;;;8.55;3.63;;;;;;;;;;4863191;29;20042;-80
2022/01/31 01:42:12;;;;;;;10.23;3.90;;;;;;;;;;4855390;29;20049;-80
2022/01/31 01:44:57;;;;;;;7.82;2.85;;;;;;;;;;4863199;29;20417;-80
2022/01/31 01:47:46;;;;;;;6.05;3.13;;;;;;;;;;4857644;29;20053;-82
2022/01/31 01:50:31;;;;;;;5.43;2.10;;;;;;;;;;4869469;29;20046;-78
2022/01/31 01:53:17;;;;;;;6.05;1.70;;;;;;;;;;4861820;29;20061;-78
2022/01/31 01:56:03;;;;;;;6.03;2.25;;;;;;;;;;4862811;29;20050;-79
2022/01/31 01:58:51;;;;;;;3.30;1.70;;;;;;;;;;4868078;29;20049;-79
2022/01/31 02:01:36;;;;;;;4.55;2.03;;;;;;;;;;4867618;29;20057;-80
2022/01/31 02:04:21;;;;;;;5.65;2.20;;;;;;;;;;4867771;29;20050;-79
2022/01/31 02:07:08;;;;;;;5.85;2.63;;;;;;;;;;4867649;29;20057;-79
2022/01/31 02:09:56;;;;;;;5.93;2.38;;;;;;;;;;4862572;29;20053;-80
2022/01/31 02:12:44;;;;;;;7.07;2.58;;;;;;;;;;4868034;29;20053;-80
2022/01/31 02:15:36;;;;;;;8.50;2.72;;;;;;;;;;4867161;29;20053;-79
2022/01/31 02:18:48;;;;;;;9.05;3.30;;;;;;;;;;4862120;29;20053;-79
2022/01/31 02:21:52;;;;;;;10.30;4.07;;;;;;;;;;4867288;29;20049;-79
2022/01/31 02:24:56;;;;;;;11.57;3.40;;;;;;;;;;4862343;29;20045;-78
2022/01/31 02:28:00;;;;;;;10.27;3.65;;;;;;;;;;4861925;29;20041;-79
2022/01/31 02:30:46;;;;;;;7.18;3.03;;;;;;;;;;4862398;29;20404;-79
2022/01/31 02:33:31;;;;;;;9.35;2.65;;;;;;;;;;4867754;29;20049;-78
2022/01/31 02:36:17;;;;;;;12.90;3.67;;;;;;;;;;4867549;29;20057;-80
2022/01/31 02:39:04;;;;;;;9.80;3.08;;;;;;;;;;4867147;29;20045;-80
2022/01/31 02:41:49;;;;;;;9.88;3.80;;;;;;;;;;4867635;29;20053;-78
2022/01/31 02:44:38;;;;;;;9.88;4.00;;;;;;;;;;4867363;29;20053;-78
2022/01/31 02:47:35;;;;;;;10.38;2.97;;;;;;;;;;4863655;29;20045;-81
2022/01/31 02:50:20;;;;;;;9.60;3.22;;;;;;;;;;4867111;29;20049;-77
2022/01/31 02:53:13;;;;;;;11.18;2.63;;;;;;;;;;4866994;29;20057;-80
2022/01/31 02:56:01;;;;;;;4.65;1.40;;;;;;;;;;4866758;29;20041;-78
2022/01/31 02:58:46;;;;;;;9.70;2.50;;;;;;;;;;4867258;29;20057;-77
2022/01/31 03:01:36;;;;;;;7.03;2.60;;;;;;;;;;4866744;29;20054;-77
2022/01/31 03:04:21;;;;;;;9.88;2.83;;;;;;;;;;4867129;29;20478;-77
2022/01/31 03:07:06;;;;;;;11.73;3.65;;;;;;;;;;4867251;29;20049;-79
2022/01/31 03:09:52;;;;;;;11.10;3.95;;;;;;;;;;4869026;29;20046;-79
2022/01/31 03:12:44;;;;;;;14.73;3.95;;;;;;;;;;4870470;29;20045;-78
2022/01/31 03:15:29;;;;;;;13.23;4.68;;;;;;;;;;4870254;29;20050;-79
2022/01/31 03:18:27;;;;;;;13.75;5.20;;;;;;;;;;4863384;29;20045;-80
2022/01/31 03:21:12;;;;;;;18.85;5.05;;;;;;;;;;4869456;29;20049;-79
2022/01/31 03:23:58;;;;;;;17.10;5.15;;;;;;;;;;4868722;29;20053;-78
2022/01/31 03:26:43;;;;;;;15.27;5.00;;;;;;;;;;4869294;29;20049;-78
2022/01/31 03:29:32;;;;;;;13.23;3.72;;;;;;;;;;4872416;29;20050;-78
2022/01/31 03:32:18;;;;;;;10.73;3.55;;;;;;;;;;4869799;29;20049;-77
2022/01/31 03:35:05;;;;;;;10.35;4.18;;;;;;;;;;4889352;29;20046;-79
2022/01/31 03:37:51;;;;;;;13.40;4.28;;;;;;;;;;4885539;29;20049;-78
2022/01/31 03:40:41;;;;;;;16.80;4.40;;;;;;;;;;4878983;29;20053;-79
2022/01/31 03:43:26;;;;;;;12.60;3.40;;;;;;;;;;4872580;29;20397;-80
2022/01/31 03:46:11;;;;;;;16.75;4.60;;;;;;;;;;4876826;29;20477;-81
2022/01/31 03:48:57;;;;;;;14.93;4.72;;;;;;;;;;4861994;29;20207;-80
2022/01/31 03:51:53;;;;;;;13.43;4.18;;;;;;;;;;4870886;29;20053;-80
2022/01/31 03:54:48;;;;;;;;;;;;;;;;;;4865703;29;20049;-78
2022/01/31 03:57:34;;;;;;;13.55;3.90;;;;;;;;;;4877887;29;19904;-79
2022/01/31 04:00:45;;;;;;;11.98;3.65;;;;;;;;;;4863760;29;20049;-79
2022/01/31 04:03:32;;;;;;;9.27;3.97;;;;;;;;;;4884753;29;20046;-79
2022/01/31 04:06:18;;;;;;;10.38;5.07;;;;;;;;;;4884384;29;20053;-78
2022/01/31 04:09:03;;;;;;;12.40;5.38;;;;;;;;;;4871950;29;20057;-80
2022/01/31 04:11:49;;;;;;;17.67;8.55;;;;;;;;;;4868512;29;20062;-79
2022/01/31 04:14:34;;;;;;;7.15;3.38;;;;;;;;;;4868563;29;20046;-80
2022/01/31 04:17:21;;;;;;;15.38;5.22;;;;;;;;;;4869991;29;20054;-78
2022/01/31 04:20:08;;;;;;;12.95;4.18;;;;;;;;;;4868973;29;20489;-81
2022/01/31 04:22:58;;;;;;;11.52;4.30;;;;;;;;;;4869337;29;20049;-80
2022/01/31 04:25:51;;;;;;;9.82;3.75;;;;;;;;;;4855127;29;20061;-79
2022/01/31 04:28:45;;;;;;;13.30;4.82;;;;;;;;;;4868783;29;20046;-80
2022/01/31 04:31:41;;;;;;;9.43;4.88;;;;;;;;;;4866224;29;20405;-78
2022/01/31 04:34:27;;;;;;;9.60;4.07;;;;;;;;;;4864290;29;20054;-77
2022/01/31 04:37:12;;;;;;;13.75;4.38;;;;;;;;;;4864525;29;20057;-80
2022/01/31 04:39:57;;;;;;;17.75;6.47;;;;;;;;;;4850740;29;20057;-80
2022/01/31 04:42:44;;;;;;;26.25;8.88;;;;;;;;;;4863513;29;20049;-79
2022/01/31 04:45:29;;;;;;;20.02;7.40;;;;;;;;;;4864550;29;20426;-78
2022/01/31 04:48:15;;;;;;;19.80;6.97;;;;;;;;;;4863850;29;20053;-79
2022/01/31 04:51:01;;;;;;;22.60;8.40;;;;;;;;;;4864361;29;20053;-79
2022/01/31 04:53:46;;;;;;;22.73;9.70;;;;;;;;;;4864047;29;20049;-80
2022/01/31 04:56:32;;;;;;;13.25;6.72;;;;;;;;;;4863391;29;20057;-79
2022/01/31 04:59:18;;;;;;;27.95;12.45;;;;;;;;;;4863487;29;20409;-79
2022/01/31 05:02:03;;;;;;;28.67;11.27;;;;;;;;;;4863508;29;20049;-79
2022/01/31 05:04:49;;;;;;;25.38;9.23;;;;;;;;;;4850027;29;20053;-79
2022/01/31 05:07:34;;;;;;;24.50;12.02;;;;;;;;;;4877749;29;20057;-78
2022/01/31 05:10:20;;;;;;;27.40;13.13;;;;;;;;;;4901995;29;20400;-78
2022/01/31 05:13:05;;;;;;;32.72;11.52;;;;;;;;;;4902953;29;20052;-78
2022/01/31 05:15:53;;;;;;;32.17;13.40;;;;;;;;;;4902918;29;20480;-81
2022/01/31 05:18:39;;;;;;;32.35;13.02;;;;;;;;;;4902492;29;20053;-80
2022/01/31 05:21:24;;;;;;;32.35;13.30;;;;;;;;;;4902296;29;20048;-79
2022/01/31 05:24:10;;;;;;;30.42;11.77;;;;;;;;;;4901974;29;20060;-80
2022/01/31 05:26:55;;;;;;;29.40;12.40;;;;;;;;;;4901496;29;20044;-80
2022/01/31 05:29:41;;;;;;;60.97;20.90;;;;;;;;;;4900976;29;20057;-78
2022/01/31 05:32:26;;;;;;;48.50;18.67;;;;;;;;;;4901624;29;20053;-77
2022/01/31 05:35:12;;;;;;;54.67;22.48;;;;;;;;;;4901025;29;20396;-78
2022/01/31 05:37:58;;;;;;;41.28;18.35;;;;;;;;;;4887302;29;20057;-79
2022/01/31 05:40:43;;;;;;;54.60;19.70;;;;;;;;;;4882663;29;20057;-78
2022/01/31 05:43:29;;;;;;;71.30;24.38;;;;;;;;;;4882564;29;20061;-80
2022/01/31 05:46:15;;;;;;;49.40;19.27;;;;;;;;;;4881802;29;20497;-79
2022/01/31 05:49:00;;;;;;;56.03;22.52;;;;;;;;;;4881575;29;20041;-78
2022/01/31 05:52:01;;;;;;;20.27;9.65;;;;;;;;;;4881417;29;20057;-78
2022/01/31 05:54:46;;;;;;;35.10;14.07;;;;;;;;;;4880719;29;20045;-78
2022/01/31 05:57:33;;;;;;;36.67;14.45;;;;;;;;;;4881465;29;20057;-80
2022/01/31 06:00:18;;;;;;;31.35;12.48;;;;;;;;;;4879095;29;20053;-80
2022/01/31 06:03:03;;;;;;;34.55;13.55;;;;;;;;;;4880877;29;20053;-81
2022/01/31 06:05:48;;;;;;;24.98;11.70;;;;;;;;;;4886094;29;20057;-82
2022/01/31 06:08:34;;;;;;;40.70;15.90;;;;;;;;;;4885395;29;20049;-80
2022/01/31 06:11:20;;;;;;;42.40;17.85;;;;;;;;;;4880829;29;20405;-81
2022/01/31 06:14:10;;;;;;;69.70;25.42;;;;;;;;;;4880766;29;20057;-81
2022/01/31 06:16:55;;;;;;;78.63;27.30;;;;;;;;;;4887597;29;20044;-82
2022/01/31 06:19:40;;;;;;;172.07;57.20;;;;;;;;;;4880971;29;20049;-81
2022/01/31 06:22:26;;;;;;;110.43;37.90;;;;;;;;;;4885044;29;20056;-81
2022/01/31 06:25:12;;;;;;;106.57;38.05;;;;;;;;;;4883614;29;20500;-79
2022/01/31 06:27:58;;;;;;;107.57;41.42;;;;;;;;;;4877150;29;20049;-79
2022/01/31 06:30:44;;;;;;;114.82;43.60;;;;;;;;;;4873515;29;20053;-81
2022/01/31 06:33:29;;;;;;;113.10;45.58;;;;;;;;;;4880294;29;20049;-79
2022/01/31 06:36:15;;;;;;;141.60;56.75;;;;;;;;;;4880538;29;20045;-81
2022/01/31 06:39:00;;;;;;;222.07;88.18;;;;;;;;;;4886702;29;20045;-80
2022/01/31 06:41:46;;;;;;;213.15;87.10;;;;;;;;;;4880306;29;20489;-80
2022/01/31 06:44:32;;;;;;;200.35;83.53;;;;;;;;;;4880555;29;20053;-81
2022/01/31 06:47:19;;;;;;;186.38;75.15;;;;;;;;;;4880531;29;20061;-78
2022/01/31 06:50:06;;;;;;;128.43;49.58;;;;;;;;;;4880370;29;20041;-80
2022/01/31 06:52:55;;;;;;;138.35;55.00;;;;;;;;;;4886564;29;20053;-80
2022/01/31 06:55:41;;;;;;;69.82;30.27;;;;;;;;;;4886162;29;20481;-80
2022/01/31 06:58:27;;;;;;;45.75;22.73;;;;;;;;;;4881927;29;20045;-83
2022/01/31 07:01:12;;;;;;;35.97;16.77;;;;;;;;;;4883161;29;20048;-81
2022/01/31 07:03:58;;;;;;;34.47;16.92;;;;;;;;;;4892525;29;20492;-80
2022/01/31 07:06:43;;;;;;;46.35;21.13;;;;;;;;;;4878404;29;20041;-79
2022/01/31 07:09:28;;;;;;;41.47;19.48;;;;;;;;;;4893126;29;20053;-79
2022/01/31 07:12:16;;;;;;;43.92;20.25;;;;;;;;;;4880102;29;20056;-80
2022/01/31 07:15:04;;;;;;;40.22;20.73;;;;;;;;;;4882931;29;20041;-81
2022/01/31 07:17:49;;;;;;;172.15;74.38;;;;;;;;;;4886557;29;20049;-81
2022/01/31 07:20:40;;;;;;;76.43;29.13;;;;;;;;;;4883265;29;20049;-82
2022/01/31 07:23:28;;;;;;;95.40;29.05;;;;;;;;;;4885805;29;20053;-83
2022/01/31 07:26:13;;;;;;;64.85;29.92;;;;;;;;;;4886801;29;20064;-81
2022/01/31 07:28:58;;;;;;;67.45;28.40;;;;;;;;;;4880303;29;20049;-82
2022/01/31 07:31:45;;;;;;;35.58;16.10;;;;;;;;;;4886576;29;20053;-79
2022/01/31 07:34:31;;;;;;;38.35;16.75;;;;;;;;;;4872061;29;20503;-81
2022/01/31 07:37:17;;;;;;;51.60;24.10;;;;;;;;;;4879732;29;20488;-81
2022/01/31 07:40:04;;;;;;;56.28;27.23;;;;;;;;;;4880246;29;20040;-81
2022/01/31 07:42:49;;;;;;;56.80;28.38;;;;;;;;;;4880310;29;20053;-81
2022/01/31 07:45:35;;;;;;;56.55;29.15;;;;;;;;;;4880185;29;20053;-80
2022/01/31 07:48:20;;;;;;;76.28;33.03;;;;;;;;;;4880199;29;20049;-80
2022/01/31 07:51:06;;;;;;;60.95;29.17;;;;;;;;;;4879221;29;20044;-80
2022/01/31 07:53:51;;;;;;;46.03;25.60;;;;;;;;;;4886207;29;20053;-79
2022/01/31 07:56:37;;;;;;;84.38;32.42;;;;;;;;;;4879800;29;20045;-82
2022/01/31 07:59:23;;;;;;;55.30;25.10;;;;;;;;;;4879758;29;20049;-81
2022/01/31 08:02:08;;;;;;;61.70;27.75;;;;;;;;;;4879988;29;20053;-82
2022/01/31 08:04:55;;;;;;;40.25;18.75;;;;;;;;;;4879614;29;20065;-80
2022/01/31 08:07:43;;;;;;;40.65;17.08;;;;;;;;;;4872671;29;20053;-81
2022/01/31 08:10:28;;;;;;;37.17;13.57;;;;;;;;;;4881911;29;20049;-81
2022/01/31 08:13:14;;;;;;;18.02;7.07;;;;;;;;;;4873165;29;20061;-82
2022/01/31 08:18:48;;;;;;;17.77;9.07;;;;;;;;;;4883558;29;20050;-83
2022/01/31 08:21:35;;;;;;;20.95;6.78;;;;;;;;;;4884813;29;20405;-81
2022/01/31 08:24:21;;;;;;;29.48;9.35;;;;;;;;;;4883770;29;20053;-81
2022/01/31 08:27:06;;;;;;;33.47;14.90;;;;;;;;;;4884748;29;20049;-81
2022/01/31 08:29:59;;;;;;;29.52;11.90;;;;;;;;;;4890616;29;20045;-81
2022/01/31 08:32:47;;;;;;;20.50;8.77;;;;;;;;;;4889898;29;20048;-79
2022/01/31 08:35:48;;;;;;;19.48;7.20;;;;;;;;;;4883490;29;20057;-81
2022/01/31 08:38:36;;;;;;;13.60;5.40;;;;;;;;;;4889766;29;20057;-81
2022/01/31 08:41:23;;;;;;;15.77;7.28;;;;;;;;;;4869322;29;20485;-80
2022/01/31 08:44:15;;;;;;;22.13;9.35;;;;;;;;;;4883106;29;20481;-81
2022/01/31 08:47:00;;;;;;;32.85;11.85;;;;;;;;;;4882619;29;20053;-80
2022/01/31 08:49:46;;;;;;;35.17;15.73;;;;;;;;;;4882405;29;20041;-80
2022/01/31 08:52:33;;;;;;;38.13;17.77;;;;;;;;;;4882929;29;20408;-83
2022/01/31 08:55:20;;;;;;;30.42;12.50;;;;;;;;;;4876114;29;20049;-80
2022/01/31 08:58:06;;;;;;;31.38;15.20;;;;;;;;;;4868780;29;20400;-80
2022/01/31 09:01:00;;;;;;;53.25;23.80;;;;;;;;;;4882337;29;20045;-81
2022/01/31 09:06:38;;;;;;;36.88;16.48;;;;;;;;;;4883049;29;20186;-79
2022/01/31 09:09:24;;;;;;;39.40;16.40;;;;;;;;;;4886861;29;20049;-79
2022/01/31 09:12:11;;;;;;;50.88;22.60;;;;;;;;;;4890444;29;20041;-79
2022/01/31 09:14:57;;;;;;;60.17;23.70;;;;;;;;;;4883799;29;20049;-78
2022/01/31 09:17:43;;;;;;;54.90;20.92;;;;;;;;;;4881016;29;20053;-82
2022/01/31 09:20:28;;;;;;;44.15;19.90;;;;;;;;;;4881384;29;20485;-82
2022/01/31 09:23:14;;;;;;;48.75;21.25;;;;;;;;;;4881836;29;20423;-82
2022/01/31 09:26:00;;;;;;;48.70;23.48;;;;;;;;;;4874174;29;20053;-81
2022/01/31 09:28:46;;;;;;;46.80;19.80;;;;;;;;;;4882112;29;20057;-81
2022/01/31 09:31:32;;;;;;;47.72;21.38;;;;;;;;;;4881947;29;20477;-81
2022/01/31 09:34:19;;;;;;;28.95;14.32;;;;;;;;;;4881897;29;20053;-82
2022/01/31 09:37:04;;;;;;;33.00;14.07;;;;;;;;;;4881105;29;20504;-83
2022/01/31 09:39:50;;;;;;;48.30;18.02;;;;;;;;;;4881707;29;20057;-82
2022/01/31 09:42:59;;;;;;;20.75;9.95;;;;;;;;;;4882259;29;20037;-82
2022/01/31 09:45:59;;;;;;;19.73;7.88;;;;;;;;;;4881670;29;20041;-82
2022/01/31 09:48:48;;;;;;;16.70;4.00;;;;;;;;;;4881795;29;20049;-83
2022/01/31 09:51:34;;;;;;;23.67;7.65;;;;;;;;;;4881574;29;20044;-82
2022/01/31 09:54:20;;;;;;;15.13;6.25;;;;;;;;;;4881367;29;20041;-83
2022/01/31 09:57:05;;;;;;;17.90;6.10;;;;;;;;;;4887854;29;20045;-82
2022/01/31 09:59:51;;;;;;;14.82;5.72;;;;;;;;;;4887881;29;20052;-81
2022/01/31 10:02:36;;;;;;;10.55;5.03;;;;;;;;;;4881861;29;20061;-82
2022/01/31 10:05:29;;;;;;;12.25;5.07;;;;;;;;;;4882304;29;20053;-83
2022/01/31 10:08:16;;;;;;;20.42;6.30;;;;;;;;;;4880918;29;20060;-81
2022/01/31 10:11:10;;;;;;;18.05;6.80;;;;;;;;;;4887190;29;20053;-81
2022/01/31 10:17:27;;;;;;;22.40;7.40;;;;;;;;;;4886828;29;20044;-81
2022/01/31 10:20:18;;;;;;;19.30;6.45;;;;;;;;;;4881236;29;20053;-79
2022/01/31 10:23:15;;;;;;;16.17;5.13;;;;;;;;;;4887196;29;20052;-79
2022/01/31 10:26:03;;;;;;;20.88;5.78;;;;;;;;;;4887274;29;20049;-79
2022/01/31 10:28:48;;;;;;;17.33;6.50;;;;;;;;;;4886915;29;20049;-79
2022/01/31 10:31:34;;;;;;;18.20;6.18;;;;;;;;;;4880753;29;20044;-80
2022/01/31 10:34:21;;;;;;;16.42;6.70;;;;;;;;;;4866536;29;20051;-79
2022/01/31 10:37:19;;;;;;;19.38;6.80;;;;;;;;;;4872617;29;20045;-84
2022/01/31 10:53:00;;;;;;;11.48;4.35;;;;;;;;;;4874573;29;20040;-80
2022/01/31 10:55:55;;;;;;;12.35;4.47;;;;;;;;;;4885377;29;20135;-80
2022/01/31 10:58:59;;;;;;;16.95;5.43;;;;;;;;;;4865303;29;20053;-82
2022/01/31 11:01:50;;;;;;;22.52;9.30;;;;;;;;;;4878848;29;20044;-79
2022/01/31 11:04:38;;;;;;;14.23;6.03;;;;;;;;;;4877319;29;20041;-81
2022/01/31 11:07:25;;;;;;;15.80;6.28;;;;;;;;;;4874687;29;20049;-81
2022/01/31 11:10:11;;;;;;;17.27;6.00;;;;;;;;;;4879327;29;20058;-81
2022/01/31 11:12:57;;;;;;;10.23;4.78;;;;;;;;;;4870077;29;20393;-82
2022/01/31 11:15:43;;;;;;;10.57;3.80;;;;;;;;;;4868219;29;20053;-81
2022/01/31 11:18:30;;;;;;;15.00;5.00;;;;;;;;;;4860591;29;20053;-81
2022/01/31 11:21:17;;;;;;;15.68;5.18;;;;;;;;;;4861322;29;20049;-80
2022/01/31 11:24:10;;;;;;;16.55;4.88;;;;;;;;;;4860885;29;20429;-80
2022/01/31 11:27:02;;;;;;;15.27;4.28;;;;;;;;;;4861670;29;20049;-79
2022/01/31 11:29:53;;;;;;;13.40;5.10;;;;;;;;;;4862086;29;20046;-81
2022/01/31 11:32:41;;;;;;;10.52;3.83;;;;;;;;;;4861499;29;20057;-80
2022/01/31 11:35:27;;;;;;;19.27;4.22;;;;;;;;;;4868013;29;20390;-79
2022/01/31 11:38:13;;;;;;;9.07;4.25;;;;;;;;;;4861680;29;20050;-80
2022/01/31 11:41:05;;;;;;;13.45;4.57;;;;;;;;;;4863480;29;20639;-80
2022/01/31 11:44:06;;;;;;;10.05;3.50;;;;;;;;;;4869517;29;20429;-81
2022/01/31 11:46:55;;;;;;;9.23;3.60;;;;;;;;;;4875501;29;20045;-80
2022/01/31 11:49:53;;;;;;;14.77;4.80;;;;;;;;;;4867600;29;20053;-78
2022/01/31 11:52:59;;;;;;;146.60;53.17;;;;;;;;;;4870169;29;20049;-79
2022/01/31 11:55:44;;;;;;;75.13;46.08;;;;;;;;;;4877902;29;20045;-79
2022/01/31 11:58:51;;;;;;;66.45;43.00;;;;;;;;;;4885350;29;20056;-81
2022/01/31 12:01:37;;;;;;;132.85;98.97;;;;;;;;;;4872803;29;20053;-78
2022/01/31 12:04:23;;;;;;;98.72;63.85;;;;;;;;;;4884103;29;20041;-79
2022/01/31 12:07:39;;;;;;;23.20;15.57;;;;;;;;;;4860068;29;20045;-81
2022/01/31 12:10:32;;;;;;;14.73;5.47;;;;;;;;;;4870938;29;20046;-79
2022/01/31 12:13:36;;;;;;;39.63;15.57;;;;;;;;;;4859356;29;20049;-82
2022/01/31 12:22:51;;;;;;;21.08;8.93;;;;;;;;;;4869440;29;20041;-82
2022/01/31 12:25:41;;;;;;;38.08;18.30;;;;;;;;;;4874392;29;20050;-80
2022/01/31 12:28:39;;;;;;;30.73;14.35;;;;;;;;;;4865678;29;20041;-81
2022/01/31 12:31:36;;;;;;;28.35;12.02;;;;;;;;;;4892775;29;20046;-80
2022/01/31 12:34:22;;;;;;;18.13;6.97;;;;;;;;;;4901477;29;20053;-81
2022/01/31 12:37:23;;;;;;;19.45;7.47;;;;;;;;;;4878783;29;20068;-80
2022/01/31 12:40:19;;;;;;;17.35;7.50;;;;;;;;;;4864960;29;20046;-82
2022/01/31 12:45:54;;;;;;;15.05;6.07;;;;;;;;;;4869826;29;20049;-81
2022/01/31 12:48:42;;;;;;;19.63;6.55;;;;;;;;;;4881562;29;20488;-82
2022/01/31 12:51:27;;;;;;;20.80;7.75;;;;;;;;;;4875829;29;20415;-84
2022/01/31 12:54:21;;;;;;;21.38;9.13;;;;;;;;;;4872350;29;20136;-82
2022/01/31 12:57:10;;;;;;;22.77;10.82;;;;;;;;;;4887993;29;20439;-81
2022/01/31 12:59:55;;;;;;;25.27;14.68;;;;;;;;;;4901123;29;20049;-82
2022/01/31 13:02:50;;;;;;;16.45;8.38;;;;;;;;;;4873413;29;20048;-82
2022/01/31 13:05:38;;;;;;;16.30;10.27;;;;;;;;;;4881042;29;20493;-79
2022/01/31 13:08:24;;;;;;;24.65;13.48;;;;;;;;;;4866902;29;20049;-81
2022/01/31 13:11:14;;;;;;;28.30;15.95;;;;;;;;;;4881824;29;20049;-80
2022/01/31 13:14:11;;;;;;;23.52;11.45;;;;;;;;;;4888795;29;20056;-82
2022/01/31 13:17:11;;;;;;;23.70;10.88;;;;;;;;;;4873787;29;20485;-81
2022/01/31 13:19:59;;;;;;;15.10;5.88;;;;;;;;;;4881081;29;20056;-84
2022/01/31 13:22:45;;;;;;;15.75;7.20;;;;;;;;;;4873673;29;20049;-82
2022/01/31 13:25:31;;;;;;;20.50;9.32;;;;;;;;;;4881280;29;20048;-83
2022/01/31 13:28:16;;;;;;;23.25;13.00;;;;;;;;;;4882117;29;20057;-83
2022/01/31 13:31:11;;;;;;;20.75;9.85;;;;;;;;;;4901278;29;20056;-82
2022/01/31 13:34:00;;;;;;;24.42;11.57;;;;;;;;;;4906684;29;20057;-82
2022/01/31 13:36:46;;;;;;;14.15;5.63;;;;;;;;;;4899980;29;20437;-81
2022/01/31 13:39:31;;;;;;;25.08;7.93;;;;;;;;;;4900574;29;20048;-81
2022/01/31 13:42:24;;;;;;;11.82;6.00;;;;;;;;;;4881342;29;20049;-80
2022/01/31 13:45:21;;;;;;;14.82;7.40;;;;;;;;;;4868034;29;20057;-82
2022/01/31 13:48:32;;;;;;;12.40;6.25;;;;;;;;;;4876535;29;20045;-81
2022/01/31 13:51:45;;;;;;;16.52;8.18;;;;;;;;;;4862121;29;20049;-82
2022/01/31 13:54:34;;;;;;;16.92;7.18;;;;;;;;;;4881286;29;20045;-81
2022/01/31 13:57:20;;;;;;;21.08;10.40;;;;;;;;;;4867536;29;20041;-82
2022/01/31 14:00:06;;;;;;;24.27;15.02;;;;;;;;;;4868761;29;20044;-81
2022/01/31 14:03:21;;;;;;;18.60;9.48;;;;;;;;;;4872380;29;20041;-80
2022/01/31 14:06:09;;;;;;;18.38;9.45;;;;;;;;;;4873467;29;20042;-80
2022/01/31 14:08:59;;;;;;;23.63;8.80;;;;;;;;;;4863856;29;20037;-81
2022/01/31 14:11:45;;;;;;;22.00;8.95;;;;;;;;;;4873975;29;20053;-80
2022/01/31 14:14:30;;;;;;;18.92;7.82;;;;;;;;;;4870273;29;20046;-81
2022/01/31 14:17:16;;;;;;;18.65;9.43;;;;;;;;;;4862995;29;20053;-81
2022/01/31 14:20:01;;;;;;;15.02;6.03;;;;;;;;;;4888816;29;20393;-82
2022/01/31 14:23:02;;;;;;;21.80;8.82;;;;;;;;;;4867652;29;20048;-79
2022/01/31 14:25:50;;;;;;;18.02;7.13;;;;;;;;;;4884452;29;20048;-81
2022/01/31 14:28:37;;;;;;;13.30;5.82;;;;;;;;;;4906342;29;20052;-81
2022/01/31 14:31:34;;;;;;;10.23;5.60;;;;;;;;;;4901538;29;20045;-83
2022/01/31 14:34:23;;;;;;;12.93;5.70;;;;;;;;;;4885997;29;20488;-83
2022/01/31 14:37:09;;;;;;;13.82;5.65;;;;;;;;;;4885445;29;20044;-83
2022/01/31 14:40:26;;;;;;;16.95;6.88;;;;;;;;;;4882376;29;20053;-85
2022/01/31 14:47:14;;;;;;;13.20;6.18;;;;;;;;;;4862545;29;20481;-83
2022/01/31 14:49:29;;;;;;;17.37;6.63;;;;;;;;;;4877461;29;20053;-84
2022/01/31 14:52:15;;;;;;;17.38;9.55;;;;;;;;;;4877209;29;20288;-82
2022/01/31 14:55:04;;;;;;;16.02;9.85;;;;;;;;;;4870933;29;20041;-83
2022/01/31 14:57:52;;;;;;;23.40;11.75;;;;;;;;;;4873020;29;20049;-84
2022/01/31 15:00:38;;;;;;;14.73;7.95;;;;;;;;;;4867822;29;20045;-84
2022/01/31 15:03:24;;;;;;;19.92;9.52;;;;;;;;;;4874690;29;20049;-81
2022/01/31 15:06:12;;;;;;;17.23;9.18;;;;;;;;;;4878454;29;20063;-81
2022/01/31 15:08:57;;;;;;;19.67;7.40;;;;;;;;;;4863868;29;20056;-83
2022/01/31 15:11:44;;;;;;;20.95;7.35;;;;;;;;;;4872268;29;20046;-83
2022/01/31 15:14:30;;;;;;;23.85;9.38;;;;;;;;;;4896579;29;20048;-83
2022/01/31 15:17:16;;;;;;;17.13;8.07;;;;;;;;;;4893341;29;20045;-83
2022/01/31 15:20:04;;;;;;;25.20;7.78;;;;;;;;;;4884568;29;20057;-84
2022/01/31 15:22:51;;;;;;;13.55;6.57;;;;;;;;;;4861656;29;20049;-83
2022/01/31 15:25:37;;;;;;;15.57;7.57;;;;;;;;;;4876350;29;20049;-84
2022/01/31 15:28:22;;;;;;;18.55;9.65;;;;;;;;;;4879310;29;20423;-84
2022/01/31 15:31:07;;;;;;;;;;;;;;;;;;4887750;29;20041;-81
2022/01/31 15:33:53;;;;;;;;;;;;;;;;;;4887716;29;19916;-79
2022/01/31 15:36:38;;;;;;;17.17;8.57;;;;;;;;;;4892910;29;19920;-79
2022/01/31 15:39:25;;;;;;;20.25;9.57;;;;;;;;;;4888839;29;20505;-80
2022/01/31 15:42:10;;;;;;;53.00;24.80;;;;;;;;;;4886644;29;20074;-83
2022/01/31 15:44:57;;;;;;;19.75;11.48;;;;;;;;;;4902272;29;20044;-82
2022/01/31 15:47:42;;;;;;;21.75;10.05;;;;;;;;;;4897537;29;20053;-81
2022/01/31 15:50:27;;;;;;;25.92;13.18;;;;;;;;;;4905283;29;20048;-82
2022/01/31 15:53:12;;;;;;;25.10;13.20;;;;;;;;;;4900382;29;20045;-82
2022/01/31 15:55:58;;;;;;;40.08;20.40;;;;;;;;;;4888028;29;20036;-81
2022/01/31 15:58:49;;;;;;;44.70;21.20;;;;;;;;;;4894306;29;20408;-82
2022/01/31 16:01:35;;;;;;;75.10;32.78;;;;;;;;;;4906212;29;20041;-81
2022/01/31 16:04:20;;;;;;;61.83;29.92;;;;;;;;;;4905152;29;20049;-82
2022/01/31 16:07:06;;;;;;;95.47;46.92;;;;;;;;;;4904941;29;20037;-81
2022/01/31 16:09:52;;;;;;;51.28;25.73;;;;;;;;;;4902333;29;20443;-81
2022/01/31 16:12:37;;;;;;;35.22;16.40;;;;;;;;;;4880657;29;20049;-81
2022/01/31 16:15:23;;;;;;;69.60;29.92;;;;;;;;;;4884889;29;20052;-82
2022/01/31 16:18:08;;;;;;;69.63;31.33;;;;;;;;;;4883768;29;20053;-82
2022/01/31 16:20:54;;;;;;;126.65;60.80;;;;;;;;;;4885699;29;20049;-83
2022/01/31 16:23:40;;;;;;;104.25;49.88;;;;;;;;;;4885181;29;20041;-78
2022/01/31 16:26:26;;;;;;;156.35;73.32;;;;;;;;;;4891311;29;20057;-81
2022/01/31 16:29:11;;;;;;;89.13;41.63;;;;;;;;;;4886335;29;20053;-77
2022/01/31 16:31:56;;;;;;;76.80;38.75;;;;;;;;;;4889423;29;20393;-81
2022/01/31 16:34:42;;;;;;;57.22;30.95;;;;;;;;;;4895067;29;20041;-77
2022/01/31 16:37:27;;;;;;;41.83;20.85;;;;;;;;;;4882994;29;20045;-81
2022/01/31 16:40:14;;;;;;;91.00;45.53;;;;;;;;;;4899156;29;20056;-80
2022/01/31 16:42:59;;;;;;;37.95;20.13;;;;;;;;;;4883704;29;20053;-78
2022/01/31 16:45:45;;;;;;;39.78;20.60;;;;;;;;;;4862943;29;20489;-80
2022/01/31 16:48:30;;;;;;;50.60;23.42;;;;;;;;;;4886881;29;20053;-78
2022/01/31 16:51:16;;;;;;;57.47;20.45;;;;;;;;;;4900896;29;20045;-80
2022/01/31 16:54:02;;;;;;;54.08;21.85;;;;;;;;;;4869071;29;20037;-80
2022/01/31 16:56:47;;;;;;;40.78;17.48;;;;;;;;;;4869725;29;20049;-78
2022/01/31 16:59:32;;;;;;;31.20;15.90;;;;;;;;;;4861397;29;20049;-81
2022/01/31 17:02:18;;;;;;;38.88;19.80;;;;;;;;;;4862614;29;20057;-81
2022/01/31 17:05:05;;;;;;;55.85;27.27;;;;;;;;;;4902066;29;20053;-80
2022/01/31 17:07:52;;;;;;;52.35;25.50;;;;;;;;;;4878240;29;20045;-80